Time;durP1;ratioP1;P1;durP2;ratioP2;P2;SDS_P1;SDS_P2;PMS_P1;PMS_P2;Temp;Humidity;BMP_temperature;BMP_pressure;BME280_temperature;BME280_humidity;BME280_pressure;Samples;Min_cycle;Max_cycle;Signal;HPM_P1;HPM_P2
2022/09/25 00:00:36;;;;;;;2.35;2.05;;;;;;;15.48;40.49;102009.85;1700667;83;21012;-58
2022/09/25 00:03:03;;;;;;;2.25;1.82;;;;;;;15.46;40.39;102008.59;1700167;83;21032;-55
2022/09/25 00:05:29;;;;;;;1.77;1.67;;;;;;;15.45;40.39;102013.88;1694798;82;21076;-53
2022/09/25 00:07:57;;;;;;;3.35;2.00;;;;;;;15.43;40.38;102003.86;1699742;83;21088;-54
2022/09/25 00:10:24;;;;;;;1.92;1.70;;;;;;;15.43;40.40;102006.48;1701097;83;21056;-53
2022/09/25 00:12:51;;;;;;;2.42;2.02;;;;;;;15.42;40.32;102006.02;1713700;84;21061;-53
2022/09/25 00:15:18;;;;;;;2.95;1.87;;;;;;;15.41;40.27;102001.69;1713433;84;22543;-55
2022/09/25 00:17:45;;;;;;;6.15;2.12;;;;;;;15.40;40.29;102005.19;1714048;84;21006;-53
2022/09/25 00:20:13;;;;;;;4.22;2.00;;;;;;;15.40;40.32;102002.58;1714103;84;21588;-56
2022/09/25 00:22:41;;;;;;;2.15;1.72;;;;;;;15.39;40.30;102002.17;1714342;84;21456;-55
2022/09/25 00:25:14;;;;;;;10.45;3.50;;;;;;;15.40;40.28;102005.19;1707278;84;21542;-54
2022/09/25 00:27:43;;;;;;;8.33;2.75;;;;;;;15.39;40.31;102003.48;1707273;84;21087;-53
2022/09/25 00:30:11;;;;;;;3.22;2.00;;;;;;;15.37;40.34;101997.41;1707434;84;21566;-53
2022/09/25 00:32:38;;;;;;;2.75;2.08;;;;;;;15.35;40.32;102001.83;1707442;84;21540;-55
2022/09/25 00:35:06;;;;;;;5.00;2.10;;;;;;;15.34;40.43;102000.09;1707435;84;21053;-53
2022/09/25 00:37:35;;;;;;;3.12;2.15;;;;;;;15.32;40.60;101996.63;1707447;84;21023;-52
2022/09/25 00:40:07;;;;;;;2.30;2.00;;;;;;;15.29;40.55;101992.78;1701915;84;21572;-53
2022/09/25 00:42:35;;;;;;;2.80;1.72;;;;;;;15.28;40.56;101981.86;1707675;84;21041;-56
2022/09/25 00:45:18;;;;;;;2.00;1.50;;;;;;;15.26;40.53;101986.28;1707488;84;22077;-52
2022/09/25 00:48:01;;;;;;;4.35;2.12;;;;;;;15.26;40.53;101988.90;1642720;87;21701;-55
2022/09/25 00:50:45;;;;;;;6.55;2.42;;;;;;;15.24;40.57;101986.76;1642779;87;21082;-55
2022/09/25 00:53:23;;;;;;;3.37;2.42;;;;;;;15.22;40.60;101982.00;1588907;90;21625;-55
2022/09/25 00:55:49;;;;;;;7.08;2.12;;;;;;;15.22;40.66;101988.55;1589247;90;21160;-55
2022/09/25 00:58:19;;;;;;;2.25;1.95;;;;;;;15.20;40.75;101987.72;1589596;90;21518;-54
2022/09/25 01:00:45;;;;;;;3.25;1.70;;;;;;;15.19;40.79;101992.09;1581553;91;21089;-52
2022/09/25 01:03:11;;;;;;;4.20;2.27;;;;;;;15.18;40.88;101993.45;1602241;89;21061;-53
2022/09/25 01:05:41;;;;;;;5.35;2.27;;;;;;;15.18;40.91;101989.52;1589704;90;21663;-57
2022/09/25 01:08:11;;;;;;;2.60;2.00;;;;;;;15.18;40.81;101994.31;1589594;90;21076;-54
2022/09/25 01:10:40;;;;;;;2.40;1.72;;;;;;;15.19;40.88;102003.02;1563892;92;21086;-54
2022/09/25 01:13:07;;;;;;;3.20;2.02;;;;;;;15.18;40.87;102003.93;1544086;91;21045;-56
2022/09/25 01:15:51;;;;;;;5.00;2.22;;;;;;;15.17;40.91;102002.19;1556066;92;21566;-53
2022/09/25 01:18:48;;;;;;;2.77;2.00;;;;;;;15.15;41.02;102000.05;1564257;90;21089;-56
2022/09/25 01:21:29;;;;;;;2.42;1.55;;;;;;;15.14;41.13;101990.47;1535492;93;21173;-55
2022/09/25 01:24:28;;;;;;;2.67;1.98;;;;;;;15.13;41.10;101991.35;1529754;93;21106;-53
2022/09/25 01:27:26;;;;;;;2.35;1.87;;;;;;;15.10;41.12;101993.61;1507377;95;21092;-60
2022/09/25 01:30:04;;;;;;;2.15;1.82;;;;;;;15.07;41.34;101989.73;1514436;93;21101;-55
2022/09/25 01:33:11;;;;;;;2.75;1.90;;;;;;;15.06;41.49;101995.02;1529780;93;21132;-54
2022/09/25 01:35:52;;;;;;;3.00;1.87;;;;;;;15.04;41.59;101996.80;1539104;93;21118;-56
2022/09/25 01:38:30;;;;;;;2.75;1.60;;;;;;;15.00;41.71;101992.52;1539599;93;21133;-52
2022/09/25 01:41:23;;;;;;;5.15;1.90;;;;;;;14.96;41.83;101992.17;1508592;95;21077;-55
2022/09/25 01:44:12;;;;;;;5.10;2.62;;;;;;;14.93;41.99;101985.66;1542154;90;21078;-53
2022/09/25 01:46:48;;;;;;;5.15;2.67;;;;;;;14.91;42.09;101994.00;1548371;92;21077;-58
2022/09/25 01:49:32;;;;;;;5.58;1.85;;;;;;;14.89;42.23;101987.93;1588142;89;21100;-54
2022/09/25 01:52:01;;;;;;;3.30;2.10;;;;;;;14.87;42.37;101991.03;1538694;92;21657;-60
2022/09/25 01:54:39;;;;;;;7.10;2.50;;;;;;;14.84;42.48;101989.80;1602715;89;21105;-55
2022/09/25 01:57:13;;;;;;;4.85;2.02;;;;;;;14.83;42.52;101990.67;1587204;90;21098;-54
2022/09/25 01:59:55;;;;;;;3.90;2.20;;;;;;;14.81;42.63;101991.15;1587399;90;21054;-53
2022/09/25 02:02:26;;;;;;;5.45;3.33;;;;;;;14.79;42.79;101986.39;1577236;91;21041;-53
2022/09/25 02:04:59;;;;;;;3.33;2.22;;;;;;;14.78;42.67;101987.27;1539589;93;21628;-55
2022/09/25 02:07:30;;;;;;;5.33;2.17;;;;;;;14.78;42.52;101982.02;1524580;93;21070;-54
2022/09/25 02:10:05;;;;;;;3.72;2.05;;;;;;;14.78;42.52;101976.78;1496328;95;21123;-53
2022/09/25 02:12:39;;;;;;;2.80;1.92;;;;;;;14.77;42.61;101971.14;1440534;99;21200;-59
2022/09/25 02:15:26;;;;;;;2.90;2.27;;;;;;;14.77;42.65;101969.83;1458587;97;21151;-53
2022/09/25 02:21:09;;;;;;;2.60;1.95;;;;;;;14.78;42.71;101966.30;1370065;103;21179;-55
2022/09/25 02:24:06;;;;;;;6.45;2.62;;;;;;;14.75;42.84;101960.70;1334719;106;21222;-58
2022/09/25 02:26:32;;;;;;;4.12;2.92;;;;;;;14.76;42.78;101965.47;1284093;110;21169;-57
2022/09/25 02:28:59;;;;;;;4.87;2.15;;;;;;;14.76;42.81;101962.85;1282289;111;21239;-57
2022/09/25 02:31:30;;;;;;;9.20;2.83;;;;;;;14.75;42.82;101966.38;1283811;111;21215;-54
2022/09/25 02:33:57;;;;;;;6.22;2.92;;;;;;;14.73;43.04;101966.86;1284204;110;21190;-53
2022/09/25 02:36:24;;;;;;;4.75;2.77;;;;;;;14.74;43.29;101967.26;1283967;110;21189;-54
2022/09/25 02:38:51;;;;;;;5.05;2.85;;;;;;;14.73;43.42;101966.86;1280428;110;21183;-55
2022/09/25 02:41:29;;;;;;;5.85;2.75;;;;;;;14.73;43.71;101972.09;1283971;110;21191;-55
2022/09/25 02:44:10;;;;;;;4.08;2.45;;;;;;;14.72;44.07;101967.30;1283970;110;21687;-58
2022/09/25 02:46:54;;;;;;;4.65;2.33;;;;;;;14.72;44.30;101974.28;1300202;108;21201;-58
2022/09/25 02:49:46;;;;;;;3.15;2.30;;;;;;;14.71;44.20;101966.90;1278186;111;21193;-52
2022/09/25 02:52:21;;;;;;;2.65;2.45;;;;;;;14.71;44.21;101966.90;1281019;112;21220;-55
2022/09/25 02:54:56;;;;;;;2.70;2.20;;;;;;;14.72;44.32;101967.73;1274087;111;21172;-55
2022/09/25 02:57:48;;;;;;;2.47;2.02;;;;;;;14.72;44.25;101969.91;1227161;116;21226;-56
2022/09/25 03:00:15;;;;;;;3.27;2.50;;;;;;;14.74;44.26;101967.26;1216405;117;21805;-53
2022/09/25 03:02:43;;;;;;;2.62;2.10;;;;;;;14.73;44.22;101970.79;1223698;116;21246;-55
2022/09/25 03:05:11;;;;;;;3.22;2.50;;;;;;;14.72;44.34;101970.35;1235867;115;21281;-53
2022/09/25 03:10:24;;;;;;;4.05;2.65;;;;;;;14.68;44.70;101969.13;1274923;110;21718;-52
2022/09/25 03:12:50;;;;;;;3.52;3.10;;;;;;;14.68;44.83;101971.73;1290796;109;21254;-54
2022/09/25 03:15:17;;;;;;;3.50;2.70;;;;;;;14.67;44.80;101968.69;1339313;105;21280;-55
2022/09/25 03:17:44;;;;;;;4.78;3.30;;;;;;;14.68;44.65;101970.43;1356564;106;21140;-55
2022/09/25 03:20:10;;;;;;;4.25;3.70;;;;;;;14.71;44.67;101969.95;1389196;99;21608;-53
2022/09/25 03:22:36;;;;;;;5.25;3.17;;;;;;;14.74;44.58;101979.05;1411568;102;21213;-52
2022/09/25 03:25:07;;;;;;;5.95;3.60;;;;;;;14.76;44.64;101972.02;1432661;97;21651;-55
2022/09/25 03:27:35;;;;;;;8.05;3.58;;;;;;;14.80;44.59;101969.75;1411716;100;21131;-53
2022/09/25 03:30:04;;;;;;;4.60;3.42;;;;;;;14.84;44.50;101968.83;1432513;99;21119;-53
2022/09/25 03:32:31;;;;;;;5.75;3.83;;;;;;;14.89;44.39;101969.58;1411570;100;21139;-53
2022/09/25 03:34:57;;;;;;;4.35;3.55;;;;;;;14.93;44.42;101969.50;1480783;93;21144;-55
2022/09/25 03:37:24;;;;;;;8.15;3.40;;;;;;;14.96;44.46;101973.34;1521911;92;21084;-52
2022/09/25 03:39:51;;;;;;;5.15;3.83;;;;;;;14.97;44.64;101972.91;1529092;91;21571;-57
2022/09/25 03:42:18;;;;;;;4.92;3.22;;;;;;;14.98;44.70;101972.03;1568875;91;21125;-54
2022/09/25 03:44:45;;;;;;;3.72;2.90;;;;;;;14.99;44.75;101976.36;1566160;91;21092;-52
2022/09/25 03:47:11;;;;;;;5.25;3.62;;;;;;;14.99;44.84;101971.12;1552172;91;21114;-60
2022/09/25 03:49:38;;;;;;;6.10;3.60;;;;;;;14.99;44.99;101973.73;1560855;89;21085;-55
2022/09/25 03:52:05;;;;;;;5.35;3.72;;;;;;;14.98;45.22;101975.96;1636112;86;21060;-53
2022/09/25 03:54:32;;;;;;;8.78;3.75;;;;;;;14.96;45.44;101975.13;1672079;86;21077;-56
2022/09/25 03:56:58;;;;;;;5.60;3.55;;;;;;;14.96;45.65;101972.04;1672050;85;21061;-53
2022/09/25 03:59:25;;;;;;;6.50;3.80;;;;;;;14.97;45.80;101980.77;1671939;86;21113;-56
2022/09/25 04:01:52;;;;;;;9.93;4.05;;;;;;;14.97;45.92;101980.77;1669446;86;21065;-54
2022/09/25 04:04:18;;;;;;;5.85;3.70;;;;;;;14.98;46.00;101980.73;1671454;86;21025;-55
2022/09/25 04:06:45;;;;;;;6.12;3.72;;;;;;;14.98;46.14;101983.83;1672068;84;21061;-55
2022/09/25 04:09:13;;;;;;;7.50;4.50;;;;;;;15.00;46.17;101985.50;1672084;84;21026;-55
2022/09/25 04:11:40;;;;;;;6.47;3.83;;;;;;;15.01;46.21;101987.23;1676021;84;21147;-55
2022/09/25 04:14:07;;;;;;;6.12;4.20;;;;;;;15.03;46.38;101988.51;1700404;84;21005;-54
2022/09/25 04:16:35;;;;;;;5.50;3.83;;;;;;;15.03;46.31;101983.27;1702633;82;21026;-52
2022/09/25 04:19:02;;;;;;;4.55;3.92;;;;;;;15.04;46.29;101985.01;1699863;84;21074;-53
2022/09/25 04:21:28;;;;;;;6.50;4.12;;;;;;;15.03;46.20;101988.51;1699843;84;21081;-55
2022/09/25 04:26:41;;;;;;;5.08;3.77;;;;;;;14.99;46.01;101987.72;1699980;83;21027;-53
2022/09/25 04:29:09;;;;;;;5.58;4.05;;;;;;;14.98;45.93;101987.76;1700155;83;21090;-56
2022/09/25 04:31:36;;;;;;;5.53;4.05;;;;;;;14.96;45.94;101983.00;1699916;84;21082;-59
2022/09/25 04:34:03;;;;;;;5.55;3.85;;;;;;;14.95;46.16;101986.05;1700308;84;21525;-55
2022/09/25 04:36:29;;;;;;;9.38;4.10;;;;;;;14.96;46.36;101992.17;1699972;84;21061;-60
2022/09/25 04:38:56;;;;;;;6.28;3.77;;;;;;;15.00;46.48;101989.90;1703924;83;21120;-53
2022/09/25 04:41:23;;;;;;;5.00;3.87;;;;;;;15.03;46.52;101981.95;1700344;83;21050;-53
2022/09/25 04:43:49;;;;;;;6.03;4.00;;;;;;;15.07;46.33;101974.44;1700279;83;21093;-52
2022/09/25 04:46:16;;;;;;;5.17;3.83;;;;;;;15.11;46.37;101981.34;1700309;83;21505;-51
2022/09/25 04:48:45;;;;;;;6.17;4.53;;;;;;;15.15;46.57;101977.77;1700285;84;21053;-53
2022/09/25 04:51:11;;;;;;;6.15;3.90;;;;;;;15.19;46.79;101975.48;1700363;83;21059;-50
2022/09/25 04:53:39;;;;;;;6.58;3.90;;;;;;;15.23;47.03;101978.46;1699418;83;21530;-55
2022/09/25 04:56:07;;;;;;;5.55;3.77;;;;;;;15.26;47.15;101979.72;1700369;83;21043;-53
2022/09/25 04:58:35;;;;;;;7.10;4.12;;;;;;;15.29;47.32;101977.88;1705725;83;21495;-50
2022/09/25 05:01:07;;;;;;;5.80;4.00;;;;;;;15.32;47.52;101976.52;1704548;83;21061;-53
2022/09/25 05:03:36;;;;;;;4.70;3.50;;;;;;;15.37;47.71;101978.58;1700027;83;21043;-53
2022/09/25 05:06:04;;;;;;;5.05;3.75;;;;;;;15.43;47.90;101972.39;1700252;84;21063;-55
2022/09/25 05:08:31;;;;;;;4.25;3.42;;;;;;;15.49;48.10;101976.19;1700047;84;21097;-58
2022/09/25 05:10:57;;;;;;;3.87;3.47;;;;;;;15.57;48.24;101969.00;1700251;84;21072;-53
2022/09/25 05:13:24;;;;;;;7.30;4.70;;;;;;;15.65;48.29;101972.30;1699535;84;21068;-52
2022/09/25 05:15:51;;;;;;;3.62;3.08;;;;;;;15.73;48.31;101975.61;1699996;84;21122;-57
2022/09/25 05:18:22;;;;;;;4.58;3.33;;;;;;;15.81;48.66;101972.34;1700230;83;21006;-53
2022/09/25 05:20:48;;;;;;;3.22;2.52;;;;;;;15.89;49.00;101978.27;1700088;84;20994;-53
2022/09/25 05:23:16;;;;;;;4.75;3.08;;;;;;;15.99;49.04;101981.09;1699661;83;21116;-53
2022/09/25 05:25:42;;;;;;;5.10;3.33;;;;;;;16.07;49.12;101973.88;1700310;84;21029;-54
2022/09/25 05:28:10;;;;;;;4.25;2.62;;;;;;;16.18;49.24;101971.86;1699047;84;21085;-54
2022/09/25 05:30:37;;;;;;;4.40;2.42;;;;;;;16.30;49.36;101975.47;1700558;84;21035;-53
2022/09/25 05:33:05;;;;;;;2.35;1.98;;;;;;;16.42;49.53;101975.63;1699903;83;21533;-55
2022/09/25 05:35:32;;;;;;;2.40;1.80;;;;;;;16.55;49.71;101977.52;1699693;83;21539;-56
2022/09/25 05:37:59;;;;;;;2.65;2.08;;;;;;;16.69;49.73;101987.19;1699479;83;21047;-54
2022/09/25 05:40:26;;;;;;;2.08;1.87;;;;;;;16.81;49.63;101978.52;1699581;83;21053;-52
2022/09/25 05:42:54;;;;;;;2.02;1.82;;;;;;;16.96;49.36;101977.23;1699574;84;21017;-57
2022/09/25 05:45:22;;;;;;;2.12;1.67;;;;;;;17.07;49.09;101968.55;1699609;83;21108;-54
2022/09/25 05:48:03;;;;;;;1.65;1.55;;;;;;;17.19;48.88;101973.92;1699452;83;21065;-54
2022/09/25 05:50:31;;;;;;;1.77;1.57;;;;;;;17.29;48.74;101973.58;1626008;87;21058;-53
2022/09/25 05:52:59;;;;;;;1.85;1.60;;;;;;;17.39;48.54;101972.42;1625838;88;21054;-54
2022/09/25 05:55:25;;;;;;;2.37;1.80;;;;;;;17.46;48.40;101973.94;1626575;88;21066;-55
2022/09/25 05:57:52;;;;;;;1.60;1.50;;;;;;;17.55;48.57;101976.77;1626414;88;21018;-55
2022/09/25 06:00:19;;;;;;;2.95;1.92;;;;;;;17.62;48.60;101978.32;1626107;88;21038;-55
2022/09/25 06:02:50;;;;;;;1.45;1.22;;;;;;;17.69;48.58;101979.83;1625643;88;21090;-54
2022/09/25 06:05:17;;;;;;;2.05;1.40;;;;;;;17.76;48.58;101979.58;1626041;88;21101;-55
2022/09/25 06:07:44;;;;;;;2.42;1.50;;;;;;;17.84;48.49;101971.45;1625764;88;21519;-55
2022/09/25 06:10:11;;;;;;;2.12;1.92;;;;;;;17.93;48.42;101975.56;1625718;88;21042;-57
2022/09/25 06:12:38;;;;;;;1.70;1.60;;;;;;;18.00;47.96;101973.11;1624909;88;21061;-53
2022/09/25 06:15:06;;;;;;;1.22;1.10;;;;;;;18.07;47.22;101972.87;1614480;88;21057;-54
2022/09/25 06:17:33;;;;;;;1.40;1.30;;;;;;;18.15;46.49;101977.88;1615716;88;21585;-54
2022/09/25 06:20:00;;;;;;;2.20;1.22;;;;;;;18.22;45.93;101980.70;1619367;88;21129;-59
2022/09/25 06:22:27;;;;;;;1.25;1.07;;;;;;;18.29;45.29;101979.59;1609343;88;21621;-57
2022/09/25 06:24:54;;;;;;;1.27;1.10;;;;;;;18.36;45.06;101978.48;1622033;88;21522;-54
2022/09/25 06:27:20;;;;;;;1.95;1.15;;;;;;;18.42;44.93;101976.95;1619769;88;21081;-55
2022/09/25 06:29:47;;;;;;;1.67;1.37;;;;;;;18.49;44.92;101970.56;1638927;86;21097;-54
2022/09/25 06:32:15;;;;;;;2.27;1.30;;;;;;;18.55;44.69;101974.30;1649310;86;21132;-54
2022/09/25 06:34:42;;;;;;;1.95;1.10;;;;;;;18.63;44.67;101974.88;1627852;86;21013;-54
2022/09/25 06:37:09;;;;;;;1.12;1.02;;;;;;;18.71;44.47;101970.22;1639723;86;21117;-55
2022/09/25 06:39:36;;;;;;;1.57;1.20;;;;;;;18.78;44.55;101971.70;1646252;86;21085;-55
2022/09/25 06:42:04;;;;;;;1.70;1.10;;;;;;;18.87;44.59;101971.38;1646266;86;21065;-55
2022/09/25 06:44:30;;;;;;;1.20;1.10;;;;;;;18.96;44.79;101968.87;1640667;86;21099;-55
2022/09/25 06:46:58;;;;;;;3.75;0.90;;;;;;;19.07;45.03;101971.49;1666812;84;21114;-53
2022/09/25 06:49:26;;;;;;;1.30;1.20;;;;;;;19.27;45.13;101976.00;1695721;84;21035;-55
2022/09/25 06:51:53;;;;;;;1.82;1.00;;;;;;;19.51;45.00;101966.31;1695709;84;21510;-57
2022/09/25 06:54:20;;;;;;;1.77;1.37;;;;;;;19.75;44.53;101966.65;1696043;84;21047;-55
2022/09/25 06:56:49;;;;;;;1.90;1.30;;;;;;;20.00;44.28;101963.41;1695645;84;21077;-56
2022/09/25 06:59:16;;;;;;;1.45;1.35;;;;;;;20.24;43.86;101965.05;1686945;84;21629;-54
2022/09/25 07:01:43;;;;;;;1.15;1.05;;;;;;;20.43;43.33;101967.30;1684594;84;21050;-55
2022/09/25 07:04:12;;;;;;;1.50;1.30;;;;;;;20.59;43.10;101968.34;1684501;84;21002;-54
2022/09/25 07:06:39;;;;;;;1.30;1.20;;;;;;;20.68;43.04;101970.59;1685589;84;21085;-54
2022/09/25 07:09:06;;;;;;;1.20;1.10;;;;;;;20.75;43.18;101973.34;1682199;84;21053;-55
2022/09/25 07:11:34;;;;;;;1.27;1.15;;;;;;;20.80;43.06;101966.08;1689007;84;21073;-55
2022/09/25 07:14:00;;;;;;;1.70;1.30;;;;;;;20.83;42.22;101965.95;1687710;84;21071;-53
2022/09/25 07:16:29;;;;;;;1.10;1.00;;;;;;;20.85;41.84;101969.39;1689318;85;21516;-55
2022/09/25 07:18:59;;;;;;;1.15;1.05;;;;;;;20.89;41.60;101973.61;1687553;85;21123;-55
2022/09/25 07:21:28;;;;;;;1.02;1.00;;;;;;;20.93;41.73;101968.58;1688899;85;21091;-56
2022/09/25 07:23:57;;;;;;;1.02;1.00;;;;;;;20.96;41.38;101969.74;1688399;84;21063;-54
2022/09/25 07:26:27;;;;;;;1.37;1.27;;;;;;;20.99;41.18;101972.27;1687016;85;21528;-54
2022/09/25 07:28:56;;;;;;;1.20;1.10;;;;;;;21.01;41.15;101966.44;1688326;85;21522;-55
2022/09/25 07:31:26;;;;;;;1.10;1.10;;;;;;;21.03;40.97;101965.94;1686149;85;20999;-55
2022/09/25 07:33:53;;;;;;;0.90;0.90;;;;;;;21.05;40.99;101961.43;1687938;85;21011;-55
2022/09/25 07:36:19;;;;;;;1.25;1.15;;;;;;;21.08;40.81;101963.92;1688993;85;21075;-55
2022/09/25 07:38:52;;;;;;;1.65;1.30;;;;;;;21.13;40.87;101968.14;1688669;85;21067;-54
2022/09/25 07:41:24;;;;;;;1.45;1.10;;;;;;;21.16;41.10;101965.37;1684871;85;21027;-55
2022/09/25 07:43:57;;;;;;;2.80;1.35;;;;;;;21.18;41.00;101965.70;1686864;85;21042;-55
2022/09/25 07:46:27;;;;;;;1.47;1.37;;;;;;;21.22;41.09;101965.08;1619463;87;21048;-55
2022/09/25 07:48:55;;;;;;;1.30;1.20;;;;;;;21.24;40.83;101953.95;1615002;88;21123;-55
2022/09/25 07:51:22;;;;;;;1.37;1.27;;;;;;;21.29;41.01;101955.94;1619310;88;21376;-55
2022/09/25 07:53:49;;;;;;;1.47;1.37;;;;;;;21.33;40.95;101960.15;1618289;88;21072;-54
2022/09/25 07:56:16;;;;;;;1.35;1.25;;;;;;;21.38;40.86;101958.13;1619254;88;21110;-53
2022/09/25 07:58:44;;;;;;;1.40;1.30;;;;;;;21.43;41.00;101957.45;1619315;88;21140;-52
2022/09/25 08:01:12;;;;;;;1.47;1.37;;;;;;;21.46;41.08;101959.48;1613531;88;21112;-52
2022/09/25 08:03:39;;;;;;;3.15;1.42;;;;;;;21.52;41.22;101950.38;1619482;88;21119;-55
2022/09/25 08:06:09;;;;;;;1.60;1.50;;;;;;;21.58;41.22;101953.59;1619355;88;21068;-57
2022/09/25 08:08:36;;;;;;;2.25;1.55;;;;;;;21.62;41.06;101950.31;1619242;88;21118;-53
2022/09/25 08:11:13;;;;;;;5.10;2.08;;;;;;;21.66;41.12;101945.27;1619220;87;21635;-53
2022/09/25 08:13:41;;;;;;;1.70;1.60;;;;;;;21.72;41.23;101943.66;1580867;90;21112;-55
2022/09/25 08:16:12;;;;;;;2.37;1.80;;;;;;;21.77;41.47;101946.47;1586577;89;21595;-62
2022/09/25 08:18:42;;;;;;;1.70;1.60;;;;;;;21.81;41.63;101949.81;1587351;89;21070;-54
2022/09/25 08:21:09;;;;;;;1.62;1.50;;;;;;;21.86;41.75;101951.82;1577999;89;21129;-55
2022/09/25 08:23:36;;;;;;;2.40;1.98;;;;;;;21.92;41.94;101945.34;1587288;90;21090;-55
2022/09/25 08:26:03;;;;;;;1.30;1.15;;;;;;;21.96;42.43;101934.52;1587881;89;21629;-55
2022/09/25 08:28:30;;;;;;;1.47;1.10;;;;;;;22.02;42.38;101926.27;1587641;89;21159;-54
2022/09/25 08:31:00;;;;;;;1.32;1.12;;;;;;;22.07;42.66;101928.19;1587436;89;21100;-55
2022/09/25 08:33:27;;;;;;;2.45;1.42;;;;;;;22.12;42.70;101932.80;1587952;87;21122;-55
2022/09/25 08:35:56;;;;;;;2.50;1.30;;;;;;;22.17;42.34;101934.77;1587066;89;21113;-55
2022/09/25 08:38:24;;;;;;;2.37;1.25;;;;;;;22.20;42.64;101928.42;1560627;91;21598;-55
2022/09/25 08:41:06;;;;;;;1.27;1.12;;;;;;;22.25;43.32;101929.92;1563388;91;21544;-55
2022/09/25 08:43:36;;;;;;;1.30;1.17;;;;;;;22.30;43.15;101927.88;1516697;94;21056;-55
2022/09/25 08:49:01;;;;;;;1.10;1.05;;;;;;;22.42;41.12;101926.40;1513149;94;21150;-55
2022/09/25 08:51:30;;;;;;;1.50;1.30;;;;;;;22.46;39.86;101920.83;1513307;94;21187;-55
2022/09/25 08:53:57;;;;;;;3.55;0.95;;;;;;;22.51;39.30;101920.12;1514122;94;21096;-55
2022/09/25 08:56:26;;;;;;;1.67;1.40;;;;;;;22.56;38.39;101922.08;1515803;94;21056;-56
2022/09/25 08:59:00;;;;;;;2.92;1.32;;;;;;;22.61;39.40;101920.06;1515485;94;21135;-56
2022/09/25 09:01:31;;;;;;;1.95;1.60;;;;;;;22.66;39.84;101925.13;1512588;94;21185;-55
2022/09/25 09:04:19;;;;;;;2.27;1.60;;;;;;;22.72;39.81;101919.49;1518468;92;21137;-55
2022/09/25 09:06:48;;;;;;;2.67;1.87;;;;;;;22.75;39.64;101910.52;1533270;93;21144;-56
2022/09/25 09:09:32;;;;;;;4.08;1.67;;;;;;;22.79;38.92;101912.06;1533169;93;21102;-55
2022/09/25 09:12:21;;;;;;;3.02;1.77;;;;;;;22.82;38.38;101907.44;1501512;94;21172;-56
2022/09/25 09:14:51;;;;;;;2.25;1.80;;;;;;;22.85;37.56;101905.09;1505979;94;21092;-55
2022/09/25 09:17:24;;;;;;;1.92;1.70;;;;;;;22.89;37.60;101910.62;1507858;94;21156;-55
2022/09/25 09:20:03;;;;;;;3.35;2.02;;;;;;;22.91;37.19;101912.72;1511806;91;21141;-55
2022/09/25 09:22:34;;;;;;;2.47;1.62;;;;;;;22.93;36.61;101912.16;1575577;90;21144;-56
2022/09/25 09:25:10;;;;;;;4.08;1.67;;;;;;;22.97;37.02;101912.38;1573104;90;21081;-55
2022/09/25 09:28:09;;;;;;;1.95;1.55;;;;;;;22.99;36.70;101905.19;1570584;89;21057;-55
2022/09/25 09:31:16;;;;;;;2.10;1.57;;;;;;;23.03;36.47;101908.06;1602688;88;21115;-56
2022/09/25 09:34:01;;;;;;;1.90;1.72;;;;;;;23.06;36.32;101900.77;1490624;95;21070;-55
2022/09/25 09:36:39;;;;;;;3.52;1.57;;;;;;;23.11;36.57;101903.17;1495023;94;21147;-55
2022/09/25 09:39:17;;;;;;;6.37;1.70;;;;;;;23.14;36.64;101891.08;1497978;95;21142;-55
2022/09/25 09:42:05;;;;;;;1.92;1.22;;;;;;;23.18;36.51;101895.27;1497600;94;21097;-56
2022/09/25 09:44:56;;;;;;;1.65;1.20;;;;;;;23.20;36.24;101894.71;1500629;95;21114;-55
2022/09/25 09:47:45;;;;;;;1.45;1.20;;;;;;;23.24;35.27;101891.80;1477073;97;21114;-55
2022/09/25 09:50:43;;;;;;;2.65;1.27;;;;;;;23.27;35.78;101888.09;1439248;100;21215;-55
2022/09/25 09:53:33;;;;;;;1.37;1.20;;;;;;;23.30;35.36;101878.17;1439259;100;21145;-56
2022/09/25 09:56:03;;;;;;;1.42;1.30;;;;;;;23.35;35.88;101877.92;1401813;101;21133;-56
2022/09/25 09:58:49;;;;;;;1.40;1.30;;;;;;;23.39;35.63;101875.47;1401740;101;21146;-56
2022/09/25 10:01:19;;;;;;;2.05;1.30;;;;;;;23.41;35.38;101864.32;1397783;102;21163;-55
2022/09/25 10:03:48;;;;;;;1.50;1.40;;;;;;;23.43;35.53;101862.43;1401701;101;21161;-56
2022/09/25 10:06:15;;;;;;;3.33;1.00;;;;;;;23.45;35.99;101858.71;1401767;101;21074;-55
2022/09/25 10:08:42;;;;;;;3.40;1.50;;;;;;;23.49;36.69;101858.09;1417911;99;21127;-56
2022/09/25 10:11:15;;;;;;;2.47;1.67;;;;;;;23.52;37.33;101851.25;1454268;97;21128;-56
2022/09/25 10:13:44;;;;;;;2.42;1.60;;;;;;;23.57;37.29;101850.52;1482015;96;21124;-55
2022/09/25 10:16:19;;;;;;;3.60;1.72;;;;;;;23.59;37.11;101847.77;1479247;96;21633;-56
2022/09/25 10:18:54;;;;;;;2.72;1.70;;;;;;;23.62;37.54;101840.47;1485170;96;21131;-55
2022/09/25 10:21:24;;;;;;;2.00;1.80;;;;;;;23.66;37.74;101836.68;1516171;90;21125;-55
2022/09/25 10:23:54;;;;;;;3.05;1.98;;;;;;;23.69;37.99;101844.48;1558644;91;21708;-55
2022/09/25 10:26:37;;;;;;;1.97;1.77;;;;;;;23.72;38.46;101839.47;1557584;91;21092;-56
2022/09/25 10:29:20;;;;;;;2.50;2.20;;;;;;;23.74;38.40;101834.42;1553308;92;21126;-55
2022/09/25 10:31:47;;;;;;;1.70;1.50;;;;;;;23.75;38.54;101833.49;1542370;92;21552;-55
2022/09/25 10:34:20;;;;;;;2.65;1.62;;;;;;;23.77;37.91;101832.92;1573342;91;21133;-55
2022/09/25 10:36:50;;;;;;;4.10;1.82;;;;;;;23.79;37.78;101819.07;1581595;90;21545;-56
2022/09/25 10:39:34;;;;;;;1.72;1.62;;;;;;;23.82;37.84;101817.54;1595354;88;21118;-55
2022/09/25 10:42:08;;;;;;;1.57;1.42;;;;;;;23.84;37.76;101811.69;1569074;90;21109;-57
2022/09/25 10:44:37;;;;;;;3.50;1.75;;;;;;;23.87;37.64;101810.16;1597221;90;21530;-56
2022/09/25 10:50:18;;;;;;;1.65;1.55;;;;;;;23.92;36.90;101808.09;1620453;88;21689;-55
2022/09/25 10:52:58;;;;;;;2.62;1.55;;;;;;;23.94;36.21;101811.52;1608496;88;21588;-57
2022/09/25 10:55:31;;;;;;;2.17;1.70;;;;;;;23.95;36.36;101810.55;1616429;88;21086;-54
2022/09/25 10:58:08;;;;;;;;;;;;;;;23.95;36.12;101807.89;1597065;89;21739;-54
2022/09/25 11:00:43;;;;;;;2.30;1.90;;;;;;;23.96;35.87;101800.31;1577166;90;20201;-56
2022/09/25 11:03:19;;;;;;;2.40;2.20;;;;;;;23.95;36.14;101801.24;1554268;91;21117;-56
2022/09/25 11:05:56;;;;;;;1.77;1.57;;;;;;;23.95;35.28;101797.25;1508925;94;21075;-58
2022/09/25 11:08:29;;;;;;;2.67;1.45;;;;;;;23.95;35.88;101800.38;1525917;93;21603;-55
2022/09/25 11:11:01;;;;;;;1.98;1.50;;;;;;;23.95;35.55;101802.57;1521922;93;21605;-56
2022/09/25 11:13:35;;;;;;;1.52;1.40;;;;;;;23.94;35.36;101796.89;1520090;93;21079;-61
2022/09/25 11:16:01;;;;;;;1.55;1.42;;;;;;;23.94;35.34;101786.72;1475509;96;21664;-53
2022/09/25 11:18:41;;;;;;;2.62;1.55;;;;;;;23.95;36.04;101789.75;1487109;96;21142;-59
2022/09/25 11:21:25;;;;;;;3.40;1.42;;;;;;;23.95;35.47;101783.96;1487709;96;21082;-54
2022/09/25 11:24:21;;;;;;;2.10;1.60;;;;;;;23.96;35.01;101783.03;1450569;96;21107;-55
2022/09/25 11:27:24;;;;;;;1.57;1.47;;;;;;;23.96;34.87;101781.70;1476898;97;21061;-55
2022/09/25 11:30:13;;;;;;;1.47;1.37;;;;;;;23.96;35.26;101776.38;1444254;99;21226;-55
2022/09/25 11:32:53;;;;;;;3.37;1.60;;;;;;;23.98;35.73;101782.46;1467362;98;21031;-55
2022/09/25 11:35:58;;;;;;;2.20;1.50;;;;;;;23.99;35.47;101781.49;1437679;99;21143;-54
2022/09/25 11:41:56;;;;;;;1.60;1.50;;;;;;;24.01;35.12;101772.95;1483347;96;21139;-54
2022/09/25 11:44:41;;;;;;;1.57;1.47;;;;;;;24.01;35.15;101772.95;1536619;93;21117;-53
2022/09/25 11:47:30;;;;;;;3.10;1.40;;;;;;;24.02;34.65;101782.66;1553210;91;21059;-54
2022/09/25 11:49:57;;;;;;;1.77;1.60;;;;;;;24.02;33.71;101782.66;1541500;93;21101;-53
2022/09/25 11:52:36;;;;;;;1.32;1.22;;;;;;;24.02;33.83;101773.34;1541240;93;21112;-54
2022/09/25 11:55:46;;;;;;;2.00;1.70;;;;;;;24.03;33.99;101764.88;1550182;92;21579;-54
2022/09/25 11:58:33;;;;;;;1.40;1.30;;;;;;;24.03;34.38;101756.89;1536569;93;21626;-54
2022/09/25 12:01:43;;;;;;;3.12;1.60;;;;;;;24.03;34.32;101749.81;1538273;93;21533;-53
2022/09/25 12:04:39;;;;;;;1.80;1.52;;;;;;;24.04;33.99;101753.33;1531583;93;21555;-54
2022/09/25 12:07:39;;;;;;;1.75;1.65;;;;;;;24.04;34.26;101752.87;1527407;94;21126;-54